createdAt,value
2023-01-11T00:02:13.824Z,1.37
2023-01-11T00:04:41.853Z,1.40
2023-01-11T00:07:09.911Z,1.60
2023-01-11T00:09:37.912Z,1.40
2023-01-11T00:12:05.944Z,1.27
2023-01-11T00:14:35.367Z,1.30
2023-01-11T00:17:03.002Z,1.50
2023-01-11T00:19:30.516Z,1.13
2023-01-11T00:21:58.067Z,1.40
2023-01-11T00:24:25.630Z,1.20
2023-01-11T00:26:53.192Z,1.37
2023-01-11T00:29:20.725Z,1.70
2023-01-11T00:31:49.556Z,1.33
2023-01-11T00:34:17.521Z,1.40
2023-01-11T00:36:45.000Z,1.40
2023-01-11T00:39:12.472Z,1.67
2023-01-11T00:41:57.465Z,1.20
2023-01-11T00:44:42.439Z,1.40
2023-01-11T00:47:31.858Z,1.30
2023-01-11T00:49:59.326Z,1.27
2023-01-11T00:52:26.754Z,1.20
2023-01-11T00:54:54.360Z,1.50
2023-01-11T00:57:21.919Z,1.40
2023-01-11T00:59:49.496Z,1.27
2023-01-11T01:02:18.341Z,1.30
2023-01-11T01:04:46.015Z,1.50
2023-01-11T01:07:13.563Z,1.40
2023-01-11T01:09:41.096Z,1.37
2023-01-11T01:12:09.126Z,1.40
2023-01-11T01:14:36.447Z,1.60
2023-01-11T01:17:07.038Z,1.30
2023-01-11T01:19:37.549Z,1.40
2023-01-11T01:22:05.319Z,1.60
2023-01-11T01:24:33.869Z,1.40
2023-01-11T01:27:01.596Z,1.30
2023-01-11T01:29:29.074Z,1.50
2023-01-11T01:31:56.519Z,1.50
2023-01-11T01:34:24.015Z,1.60
2023-01-11T01:36:52.778Z,1.53
2023-01-11T01:39:20.312Z,1.60
2023-01-11T01:41:48.047Z,1.50
2023-01-11T01:44:56.011Z,1.33
2023-01-11T01:47:27.032Z,1.40
2023-01-11T01:49:54.709Z,1.23
2023-01-11T01:52:28.867Z,1.40
2023-01-11T01:54:57.178Z,1.30
2023-01-11T01:57:28.208Z,1.43
2023-01-11T01:59:58.058Z,1.27
2023-01-11T02:02:26.312Z,1.40
2023-01-11T02:04:55.630Z,1.33
2023-01-11T02:07:28.038Z,1.50
2023-01-11T02:09:59.523Z,1.30
2023-01-11T02:12:30.323Z,1.30
2023-01-11T02:15:00.606Z,1.30
2023-01-11T02:17:28.413Z,1.20
2023-01-11T02:19:58.829Z,1.50
2023-01-11T02:22:46.332Z,1.30
2023-01-11T02:25:35.503Z,1.40
2023-01-11T02:28:09.379Z,1.37
2023-01-11T02:30:40.238Z,1.63
2023-01-11T02:33:15.671Z,1.50
2023-01-11T02:35:48.542Z,1.50
2023-01-11T02:38:23.144Z,1.57
2023-01-11T02:40:55.555Z,1.43
2023-01-11T02:43:45.297Z,1.47
2023-01-11T02:46:16.030Z,1.40
2023-01-11T02:48:49.262Z,1.40
2023-01-11T02:51:20.879Z,1.37
2023-01-11T02:53:51.240Z,1.50
2023-01-11T02:56:21.890Z,1.80
2023-01-11T02:58:52.286Z,1.47
2023-01-11T03:01:23.306Z,1.40
2023-01-11T03:03:51.037Z,1.40
2023-01-11T03:06:21.603Z,1.50
2023-01-11T03:08:58.601Z,1.40
2023-01-11T03:11:52.187Z,1.60
2023-01-11T03:14:28.879Z,1.67
2023-01-11T03:17:03.331Z,1.60
2023-01-11T03:19:36.301Z,1.60
2023-01-11T03:22:08.414Z,1.60
2023-01-11T03:24:41.922Z,1.60
2023-01-11T03:27:17.563Z,1.57
2023-01-11T03:29:51.879Z,1.63
2023-01-11T03:32:30.137Z,1.80
2023-01-11T03:35:12.236Z,1.40
2023-01-11T03:37:43.051Z,1.33
2023-01-11T03:40:15.492Z,1.30
2023-01-11T03:43:07.373Z,1.40
2023-01-11T03:45:39.152Z,1.20
2023-01-11T03:48:11.113Z,1.00
2023-01-11T03:50:38.764Z,1.17
2023-01-11T03:53:07.764Z,1.03
2023-01-11T03:55:38.896Z,1.03
2023-01-11T03:58:08.819Z,1.10
2023-01-11T04:00:38.688Z,1.20
2023-01-11T04:03:06.877Z,1.10
2023-01-11T04:05:36.004Z,1.60
2023-01-11T04:08:03.669Z,1.30
2023-01-11T04:10:31.266Z,1.33
2023-01-11T04:12:59.075Z,1.10
2023-01-11T04:15:26.849Z,1.20
2023-01-11T04:17:56.230Z,1.03
2023-01-11T04:20:23.803Z,1.20
2023-01-11T04:22:51.495Z,1.10
2023-01-11T04:25:19.179Z,1.30
2023-01-11T04:27:46.756Z,1.27
2023-01-11T04:42:51.861Z,1.20
2023-01-11T04:45:19.761Z,1.20
2023-01-11T04:47:47.399Z,1.10
2023-01-11T04:50:15.119Z,1.10
2023-01-11T04:52:42.713Z,1.20
2023-01-11T04:55:10.803Z,1.10
2023-01-11T04:57:39.413Z,1.00
2023-01-11T05:00:11.102Z,1.00
2023-01-11T05:02:41.301Z,1.00
2023-01-11T05:05:10.822Z,1.00
2023-01-11T05:07:39.290Z,1.00
2023-01-11T05:10:08.568Z,0.90
2023-01-11T05:12:38.756Z,0.97
2023-01-11T05:15:09.792Z,0.93
2023-01-11T05:17:40.398Z,0.90
2023-01-11T05:23:06.911Z,0.90
2023-01-11T06:10:27.978Z,1.00
2023-01-11T07:23:31.978Z,1.13
2023-01-11T07:25:59.674Z,1.03
2023-01-11T07:28:28.436Z,1.00
2023-01-11T07:30:59.179Z,1.10
2023-01-11T07:33:27.465Z,1.20
2023-01-11T07:35:55.346Z,1.23
2023-01-11T07:38:23.223Z,1.07
2023-01-11T07:40:52.186Z,1.40
2023-01-11T07:43:19.999Z,1.10
2023-01-11T07:45:50.136Z,1.07
2023-01-11T07:48:21.479Z,1.27
2023-01-11T07:50:49.426Z,1.20
2023-01-11T07:53:18.836Z,1.20
2023-01-11T07:55:47.122Z,1.00
2023-01-11T07:58:16.747Z,1.20
2023-01-11T08:03:46.688Z,1.20
2023-01-11T08:09:02.675Z,1.00
2023-01-11T08:12:02.575Z,1.03
2023-01-11T08:14:40.668Z,1.07
2023-01-11T08:17:09.672Z,1.13
2023-01-11T08:19:37.440Z,1.13
2023-01-11T08:22:05.003Z,1.17
2023-01-11T08:24:32.534Z,0.97
2023-01-11T08:27:00.276Z,1.00
2023-01-11T08:29:28.107Z,0.97
2023-01-11T08:31:57.136Z,1.10
2023-01-11T08:34:25.525Z,1.10
2023-01-11T08:36:53.197Z,1.57
2023-01-11T08:39:20.741Z,1.30
2023-01-11T08:41:48.273Z,1.20
2023-01-11T08:44:22.325Z,1.27
2023-01-11T08:47:02.086Z,1.20
2023-01-11T08:49:30.407Z,1.50
2023-01-11T08:51:58.195Z,1.40
2023-01-11T08:54:26.163Z,1.43
2023-01-11T08:56:53.678Z,1.40
2023-01-11T08:59:22.013Z,1.50
2023-01-11T09:01:49.622Z,1.57
2023-01-11T09:04:25.310Z,1.73
2023-01-11T09:06:53.346Z,2.07
2023-01-11T09:09:20.921Z,2.10
2023-01-11T09:12:00.181Z,2.23
2023-01-11T09:14:28.554Z,1.97
2023-01-11T09:16:56.654Z,2.20
2023-01-11T09:19:25.554Z,2.17
2023-01-11T09:21:55.999Z,2.80
2023-01-11T09:24:23.545Z,2.47
2023-01-11T09:26:51.090Z,2.97
2023-01-11T09:29:19.672Z,3.10
2023-01-11T09:31:47.285Z,3.80
2023-01-11T09:34:15.159Z,3.67
2023-01-11T09:36:46.105Z,4.10
2023-01-11T09:39:16.954Z,4.67
2023-01-11T09:42:29.283Z,4.80
2023-01-11T09:45:00.546Z,4.57
2023-01-11T09:47:32.875Z,4.40
2023-01-11T09:50:04.561Z,4.67
2023-01-11T09:52:39.487Z,5.20
2023-01-11T09:55:10.243Z,5.50
2023-01-11T09:57:44.798Z,5.40
2023-01-11T10:00:19.586Z,4.40
2023-01-11T10:02:59.171Z,4.27
2023-01-11T10:05:51.287Z,4.20
2023-01-11T10:18:29.326Z,4.93
2023-01-11T10:18:29.795Z,5.37
2023-01-11T10:20:28.722Z,4.80
2023-01-11T10:22:59.847Z,4.83
2023-01-11T10:25:34.348Z,5.10
2023-01-11T10:28:06.630Z,5.03
2023-01-11T10:30:51.820Z,5.20
2023-01-11T10:33:38.274Z,5.20
2023-01-11T10:36:26.315Z,5.70
2023-01-11T10:39:11.840Z,6.27
2023-01-11T10:41:52.166Z,7.00
2023-01-11T10:44:26.626Z,7.03
2023-01-11T10:46:55.010Z,7.33
2023-01-11T10:49:32.202Z,7.57
2023-01-11T10:52:07.360Z,7.43
2023-01-11T10:54:37.264Z,6.93
2023-01-11T10:57:18.042Z,6.57
2023-01-11T11:00:00.917Z,7.60
2023-01-11T11:02:40.824Z,7.63
2023-01-11T11:05:22.360Z,7.07
2023-01-11T11:07:53.988Z,5.70
2023-01-11T11:10:25.788Z,6.33
2023-01-11T11:12:59.691Z,7.13
2023-01-11T11:15:33.725Z,6.50
2023-01-11T11:18:01.335Z,7.90
2023-01-11T11:20:30.912Z,7.40
2023-01-11T11:22:58.499Z,7.90
2023-01-11T11:25:29.471Z,7.67
2023-01-11T11:28:02.984Z,7.83
2023-01-11T11:30:32.563Z,7.50
2023-01-11T11:33:02.552Z,7.10
2023-01-11T11:35:31.987Z,8.10
2023-01-11T11:37:59.548Z,8.73
2023-01-11T11:40:33.267Z,8.30
2023-01-11T11:43:13.402Z,8.67
2023-01-11T11:45:52.054Z,8.03
2023-01-11T11:48:19.898Z,7.77
2023-01-11T11:50:48.043Z,7.27
2023-01-11T11:53:35.379Z,7.50
2023-01-11T11:56:18.231Z,8.57
2023-01-11T11:58:49.210Z,8.77
2023-01-11T12:01:25.732Z,7.77
2023-01-11T12:03:55.264Z,7.60
2023-01-11T12:53:32.476Z,4.30
2023-01-11T12:56:25.095Z,4.27
2023-01-11T12:58:56.741Z,4.63
2023-01-11T13:01:45.091Z,4.10
2023-01-11T13:04:54.052Z,4.83
2023-01-11T13:07:51.015Z,4.37
2023-01-11T13:10:48.030Z,3.60
2023-01-11T13:13:36.269Z,4.47
2023-01-11T13:16:28.078Z,4.57
2023-01-11T13:20:25.804Z,3.80
2023-01-11T13:36:51.179Z,4.60
2023-01-11T13:39:21.932Z,5.43
2023-01-11T13:41:51.829Z,4.43
2023-01-11T13:44:22.313Z,4.63
2023-01-11T13:46:57.905Z,4.70
2023-01-11T13:49:48.142Z,4.43
2023-01-11T13:52:18.623Z,4.20
2023-01-11T13:54:51.683Z,3.90
2023-01-11T13:57:25.411Z,3.87
2023-01-11T13:59:58.098Z,3.93
2023-01-11T14:02:28.681Z,3.60
2023-01-11T14:04:59.714Z,3.63
2023-01-11T14:07:38.432Z,4.27
2023-01-11T14:10:22.726Z,3.50
2023-01-11T14:13:08.684Z,3.63
2023-01-11T14:15:40.846Z,3.63
2023-01-11T14:18:19.466Z,4.13
2023-01-11T14:20:55.453Z,3.87
2023-01-11T14:23:27.361Z,3.10
2023-01-11T14:26:17.135Z,4.40
2023-01-11T14:28:54.108Z,4.07
2023-01-11T14:31:30.711Z,4.10
2023-01-11T14:34:39.832Z,4.17
2023-01-11T14:37:19.800Z,3.80
2023-01-11T14:39:59.537Z,4.43
2023-01-11T14:43:00.350Z,4.27
2023-01-11T14:45:36.172Z,4.93
2023-01-11T14:48:11.166Z,4.40
2023-01-11T14:50:51.537Z,4.43
2023-01-11T14:53:21.645Z,4.60
2023-01-11T14:55:50.501Z,3.87
2023-01-11T14:58:21.279Z,4.67
2023-01-11T15:01:10.180Z,4.47
2023-01-11T15:03:49.086Z,4.77
2023-01-11T15:06:20.288Z,4.80
2023-01-11T15:08:49.915Z,5.20
2023-01-11T15:11:41.803Z,4.50
2023-01-11T15:14:25.795Z,4.63
2023-01-11T15:17:12.278Z,4.97
2023-01-11T15:19:42.380Z,5.40
2023-01-11T15:22:23.134Z,4.87
2023-01-11T15:24:56.834Z,5.00
2023-01-11T15:27:27.422Z,5.30
2023-01-11T15:29:55.900Z,5.57
2023-01-11T15:32:27.738Z,5.83
2023-01-11T15:34:55.775Z,5.60
2023-01-11T15:37:51.964Z,5.13
2023-01-11T15:40:21.041Z,5.37
2023-01-11T15:43:41.953Z,5.73
2023-01-11T15:46:51.473Z,5.53
2023-01-11T15:49:54.891Z,5.43
2023-01-11T15:52:54.243Z,5.60
2023-01-11T15:55:48.085Z,5.57
2023-01-11T15:58:33.670Z,6.10
2023-01-11T16:01:22.289Z,5.40
2023-01-11T16:04:00.747Z,5.57
2023-01-11T16:06:36.428Z,5.37
2023-01-11T16:09:11.649Z,5.73
2023-01-11T16:11:43.803Z,5.50
2023-01-11T16:14:30.750Z,5.90
2023-01-11T16:16:58.468Z,5.37
2023-01-11T16:19:29.879Z,5.70
2023-01-11T16:21:59.331Z,5.50
2023-01-11T16:24:29.594Z,5.40
2023-01-11T16:26:58.499Z,5.03
2023-01-11T16:29:27.787Z,4.63
2023-01-11T16:31:58.291Z,5.53
2023-01-11T16:34:28.789Z,5.80
2023-01-11T16:36:57.472Z,5.40
2023-01-11T16:39:26.708Z,4.83
2023-01-11T16:41:57.121Z,5.10
2023-01-11T16:44:33.159Z,4.87
2023-01-11T16:47:16.712Z,5.80
2023-01-11T16:49:48.985Z,5.07
2023-01-11T16:52:45.352Z,5.20
2023-01-11T16:55:22.044Z,5.37
2023-01-11T16:57:53.341Z,5.30
2023-01-11T17:00:39.544Z,5.90
2023-01-11T17:03:19.489Z,5.57
2023-01-11T17:06:25.731Z,5.50
2023-01-11T17:08:54.799Z,5.43
2023-01-11T17:11:26.596Z,5.70
2023-01-11T17:14:31.303Z,5.77
2023-01-11T17:17:01.266Z,4.87
2023-01-11T17:19:31.062Z,5.57
2023-01-11T17:22:05.196Z,5.27
2023-01-11T17:24:35.915Z,5.53
2023-01-11T17:27:05.523Z,5.70
2023-01-11T17:29:36.618Z,5.20
2023-01-11T17:32:06.234Z,5.67
2023-01-11T17:34:35.103Z,5.33
2023-01-11T17:37:10.150Z,5.63
2023-01-11T17:39:39.569Z,5.77
2023-01-11T17:42:26.038Z,5.53
2023-01-11T17:45:12.215Z,5.00
2023-01-11T17:47:40.137Z,5.07
2023-01-11T17:50:19.255Z,4.70
2023-01-11T17:52:54.787Z,4.83
2023-01-11T17:55:23.897Z,5.17
2023-01-11T17:58:10.289Z,5.00
2023-01-11T18:00:38.162Z,4.77
2023-01-11T18:03:10.528Z,4.10
2023-01-11T18:05:38.169Z,4.37
2023-01-11T18:08:09.598Z,4.10
2023-01-11T18:10:39.526Z,4.03
2023-01-11T18:13:07.103Z,3.70
2023-01-11T18:15:35.942Z,4.10
2023-01-11T18:18:05.892Z,4.37
2023-01-11T18:20:38.677Z,4.00
2023-01-11T18:23:22.639Z,3.70
2023-01-11T18:25:50.122Z,3.97
2023-01-11T18:28:24.602Z,3.80
2023-01-11T18:30:54.053Z,3.67
2023-01-11T18:33:23.976Z,3.50
2023-01-11T18:35:53.361Z,4.90
2023-01-11T18:38:25.503Z,3.70
2023-01-11T18:40:53.920Z,4.40
2023-01-11T18:43:25.995Z,4.67
2023-01-11T18:45:53.554Z,4.27
2023-01-11T18:48:21.340Z,3.80
2023-01-11T18:50:49.297Z,3.80
2023-01-11T18:53:17.322Z,4.33
2023-01-11T18:55:47.093Z,4.33
2023-01-11T18:58:14.582Z,4.60
2023-01-11T19:00:42.696Z,3.40
2023-01-11T19:03:11.026Z,3.70
2023-01-11T19:05:38.782Z,4.17
2023-01-11T19:08:06.840Z,4.77
2023-01-11T19:10:34.537Z,3.63
2023-01-11T19:13:03.398Z,3.67
2023-01-11T19:15:30.945Z,3.67
2023-01-11T19:20:25.989Z,4.33
2023-01-11T19:22:53.473Z,4.00
2023-01-11T19:25:20.948Z,4.00
2023-01-11T19:27:49.669Z,4.00
2023-01-11T19:30:19.052Z,3.83
2023-01-11T19:32:51.619Z,4.30
2023-01-11T19:35:19.528Z,3.97
2023-01-11T19:37:47.065Z,4.57
2023-01-11T19:40:14.732Z,4.90
2023-01-11T19:42:42.217Z,4.20
2023-01-11T19:45:10.549Z,4.37
2023-01-11T19:47:39.910Z,3.87
2023-01-11T19:50:07.877Z,3.90
2023-01-11T19:52:35.353Z,3.50
2023-01-11T19:55:02.852Z,3.77
2023-01-11T19:57:30.302Z,3.60
2023-01-11T19:59:57.779Z,3.60
2023-01-11T20:02:26.124Z,3.97
2023-01-11T20:04:55.024Z,3.67
2023-01-11T20:07:22.492Z,3.63
2023-01-11T20:09:49.946Z,3.97
2023-01-11T20:12:17.389Z,4.30
2023-01-11T20:14:46.159Z,4.17
2023-01-11T20:17:13.682Z,3.93
2023-01-11T20:19:43.059Z,3.90
2023-01-11T20:22:11.999Z,4.53
2023-01-11T20:24:39.444Z,3.67
2023-01-11T20:27:06.924Z,3.90
2023-01-11T20:29:34.498Z,4.30
2023-01-11T20:32:24.724Z,4.33
2023-01-11T20:34:49.455Z,4.33
2023-01-11T20:37:18.523Z,4.13
2023-01-11T20:39:45.989Z,4.60
2023-01-11T20:42:13.470Z,4.27
2023-01-11T20:44:41.056Z,4.20
2023-01-11T20:47:08.596Z,4.33
2023-01-11T20:49:36.043Z,3.97
2023-01-11T20:52:03.643Z,4.60
2023-01-11T20:54:32.523Z,4.40
2023-01-11T20:57:05.194Z,5.03
2023-01-11T20:59:32.679Z,4.53
2023-01-11T21:02:00.373Z,4.40
2023-01-11T21:04:27.876Z,4.50
2023-01-11T21:06:55.335Z,4.60
2023-01-11T21:09:22.774Z,4.40
2023-01-11T21:11:53.860Z,4.20
2023-01-11T21:14:21.618Z,3.97
2023-01-11T21:16:49.307Z,4.30
2023-01-11T21:19:17.125Z,3.90
2023-01-11T21:21:44.783Z,4.60
2023-01-11T21:24:13.655Z,4.20
2023-01-11T21:26:42.221Z,4.10
2023-01-11T21:29:11.425Z,4.20
2023-01-11T21:31:39.679Z,4.20
2023-01-11T21:34:07.592Z,4.20
2023-01-11T21:36:35.220Z,3.90
2023-01-11T21:39:03.332Z,4.40
2023-01-11T21:41:49.513Z,4.07
2023-01-11T21:44:19.548Z,3.97
2023-01-11T21:46:49.073Z,4.00
2023-01-11T21:49:17.516Z,4.17
2023-01-11T21:51:45.043Z,5.53
2023-01-11T21:54:14.177Z,3.60
2023-01-11T21:56:42.620Z,4.10
2023-01-11T21:59:10.148Z,4.20
2023-01-11T22:01:41.510Z,3.70
2023-01-11T22:04:10.745Z,4.17
2023-01-11T22:06:38.735Z,4.30
2023-01-11T22:09:06.878Z,4.87
2023-01-11T22:11:34.380Z,4.70
2023-01-11T22:14:03.189Z,5.67
2023-01-11T22:16:31.588Z,5.80
2023-01-11T22:19:01.356Z,5.80
2023-01-11T22:21:29.146Z,5.73
2023-01-11T22:23:58.038Z,4.80
2023-01-11T22:26:26.689Z,5.07
2023-01-11T22:29:14.956Z,5.03
2023-01-11T22:31:44.480Z,4.93
2023-01-11T22:34:14.573Z,4.50
2023-01-11T22:36:43.034Z,4.27
2023-01-11T22:39:11.025Z,3.93
2023-01-11T22:41:40.234Z,4.43
2023-01-11T22:44:08.497Z,3.33
2023-01-11T22:46:36.399Z,3.50
2023-01-11T22:49:13.280Z,3.27
2023-01-11T22:51:43.008Z,3.10
2023-01-11T22:54:10.999Z,3.03
2023-01-11T22:56:39.272Z,3.20
2023-01-11T22:59:08.100Z,2.90
2023-01-11T23:01:36.826Z,3.23
2023-01-11T23:04:05.392Z,3.10
2023-01-11T23:06:35.799Z,3.20
2023-01-11T23:09:08.669Z,3.03
2023-01-11T23:11:55.964Z,3.30
2023-01-11T23:14:23.697Z,3.13
2023-01-11T23:16:51.293Z,3.00
2023-01-11T23:19:20.241Z,2.97
2023-01-11T23:21:48.273Z,2.70
2023-01-11T23:24:17.756Z,2.83
2023-01-11T23:26:45.524Z,3.40
2023-01-11T23:29:13.254Z,3.20
2023-01-11T23:31:40.840Z,3.17
2023-01-11T23:34:08.841Z,3.20
2023-01-11T23:36:38.127Z,3.07
2023-01-11T23:39:06.558Z,3.10
2023-01-11T23:41:53.105Z,2.73
2023-01-11T23:44:20.631Z,3.00
2023-01-11T23:47:05.385Z,2.80
2023-01-11T23:49:33.166Z,3.67
2023-01-11T23:52:01.074Z,3.03
2023-01-11T23:54:30.379Z,2.80
2023-01-11T23:57:00.507Z,2.83
2023-01-11T23:59:28.095Z,2.63
